Time;durP1;ratioP1;P1;durP2;ratioP2;P2;SDS_P1;SDS_P2;PMS_P1;PMS_P2;Temp;Humidity;BMP_temperature;BMP_pressure;BME280_temperature;BME280_humidity;BME280_pressure;Samples;Min_cycle;Max_cycle;Signal;HPM_P1;HPM_P2
2022/03/22 00:00:50;;;;;;;165.53;59.43;;;;;;;;;;5062145;28;20455;-67
2022/03/22 00:07:02;;;;;;;164.23;58.70;;;;;;;;;;5091235;28;20826;-67
2022/03/22 00:09:33;;;;;;;185.70;66.30;;;;;;;;;;5073566;28;20817;-67
2022/03/22 00:12:08;;;;;;;159.83;56.57;;;;;;;;;;5073805;28;20961;-67
2022/03/22 00:15:30;;;;;;;164.50;58.93;;;;;;;;;;5064354;28;21030;-67
2022/03/22 00:18:27;;;;;;;170.53;62.17;;;;;;;;;;5070959;28;20521;-67
2022/03/22 00:21:35;;;;;;;171.60;56.53;;;;;;;;;;5071238;28;20667;-67
2022/03/22 00:24:40;;;;;;;150.90;56.20;;;;;;;;;;5054617;28;20828;-67
2022/03/22 00:27:55;;;;;;;148.27;51.33;;;;;;;;;;5070765;28;20509;-67
2022/03/22 00:30:54;;;;;;;142.23;51.13;;;;;;;;;;5052307;28;20441;-67
2022/03/22 00:33:58;;;;;;;136.53;50.93;;;;;;;;;;5071896;28;20448;-67
2022/03/22 00:36:34;;;;;;;142.23;53.93;;;;;;;;;;5071005;28;20850;-67
2022/03/22 00:39:24;;;;;;;140.97;52.63;;;;;;;;;;5059767;28;20446;-67
2022/03/22 00:42:14;;;;;;;127.93;48.40;;;;;;;;;;5090668;28;20447;-67
2022/03/22 00:44:44;;;;;;;135.50;52.07;;;;;;;;;;5072599;28;20455;-67
2022/03/22 00:47:39;;;;;;;136.87;51.53;;;;;;;;;;5076104;28;20483;-67
2022/03/22 00:50:51;;;;;;;126.10;48.77;;;;;;;;;;5071869;28;20457;-67
2022/03/22 00:53:29;;;;;;;140.67;50.10;;;;;;;;;;5072501;28;20448;-66
2022/03/22 01:02:52;;;;;;;117.33;46.37;;;;;;;;;;5087087;28;20446;-67
2022/03/22 01:37:57;;;;;;;102.90;41.43;;;;;;;;;;5092776;28;20481;-66
2022/03/22 01:43:27;;;;;;;103.80;42.10;;;;;;;;;;5062081;28;20478;-66
2022/03/22 01:45:58;;;;;;;112.03;43.23;;;;;;;;;;5092792;28;20451;-67
2022/03/22 01:48:26;;;;;;;102.83;39.60;;;;;;;;;;5075781;28;20470;-66
2022/03/22 01:51:05;;;;;;;91.33;38.87;;;;;;;;;;5093428;28;20496;-66
2022/03/22 01:53:56;;;;;;;94.13;38.67;;;;;;;;;;5093540;28;20946;-66
2022/03/22 01:56:45;;;;;;;97.80;39.03;;;;;;;;;;5075281;28;20544;-66
2022/03/22 01:59:23;;;;;;;97.60;39.63;;;;;;;;;;5086243;28;20777;-66
2022/03/22 02:05:55;;;;;;;84.30;36.43;;;;;;;;;;5063358;28;20523;-66
2022/03/22 02:09:24;;;;;;;89.30;34.80;;;;;;;;;;5068845;28;20440;-66
2022/03/22 02:12:16;;;;;;;89.03;35.63;;;;;;;;;;5058333;28;20434;-66
2022/03/22 02:15:11;;;;;;;86.13;36.20;;;;;;;;;;5055154;28;20444;-66
2022/03/22 02:17:49;;;;;;;79.13;36.10;;;;;;;;;;5091086;28;20454;-66
2022/03/22 02:20:52;;;;;;;88.50;35.97;;;;;;;;;;5077581;28;20447;-66
2022/03/22 02:23:49;;;;;;;83.77;36.00;;;;;;;;;;5069407;28;20438;-67
2022/03/22 02:26:24;;;;;;;88.67;36.67;;;;;;;;;;5075696;28;20526;-66
2022/03/22 02:29:12;;;;;;;86.03;35.73;;;;;;;;;;5073796;28;20458;-66
2022/03/22 02:32:16;;;;;;;86.50;35.60;;;;;;;;;;5074836;28;20436;-66
2022/03/22 02:34:46;;;;;;;79.80;35.63;;;;;;;;;;5073683;28;20447;-66
2022/03/22 02:37:17;;;;;;;78.87;37.07;;;;;;;;;;5075180;28;20526;-66
2022/03/22 02:39:56;;;;;;;79.37;35.40;;;;;;;;;;5076987;28;20457;-66
2022/03/22 02:42:39;;;;;;;83.43;34.33;;;;;;;;;;5074999;28;20442;-66
2022/03/22 02:45:34;;;;;;;78.60;34.47;;;;;;;;;;5092991;28;20936;-66
2022/03/22 02:48:01;;;;;;;85.40;36.17;;;;;;;;;;5074428;28;20830;-66
2022/03/22 02:50:28;;;;;;;76.33;34.90;;;;;;;;;;5092924;28;20442;-66
2022/03/22 02:52:58;;;;;;;80.90;33.90;;;;;;;;;;5093109;28;20829;-66
2022/03/22 02:55:25;;;;;;;81.07;34.50;;;;;;;;;;5074760;28;20875;-66
2022/03/22 02:57:58;;;;;;;90.13;36.77;;;;;;;;;;5041755;28;20443;-66
2022/03/22 03:00:28;;;;;;;83.73;36.10;;;;;;;;;;5074728;28;20443;-66
2022/03/22 03:02:55;;;;;;;85.77;35.43;;;;;;;;;;5087468;28;20451;-66
2022/03/22 03:05:24;;;;;;;76.17;32.20;;;;;;;;;;5072467;28;20486;-67
2022/03/22 03:08:32;;;;;;;82.50;33.50;;;;;;;;;;5072972;28;20637;-67
2022/03/22 03:11:18;;;;;;;79.10;34.13;;;;;;;;;;5071664;28;20446;-66
2022/03/22 03:16:48;;;;;;;77.27;33.70;;;;;;;;;;5072570;28;20405;-66
2022/03/22 03:19:14;;;;;;;82.97;32.43;;;;;;;;;;5055831;28;20446;-66
2022/03/22 03:21:41;;;;;;;79.97;34.70;;;;;;;;;;5074102;28;20827;-66
2022/03/22 03:24:08;;;;;;;75.47;33.73;;;;;;;;;;5074694;28;20878;-66
2022/03/22 03:26:35;;;;;;;72.67;32.90;;;;;;;;;;5092380;28;20973;-66
2022/03/22 03:29:01;;;;;;;78.33;33.47;;;;;;;;;;5074398;28;21011;-66
2022/03/22 03:31:28;;;;;;;74.33;32.67;;;;;;;;;;5092599;28;20427;-65
2022/03/22 03:33:55;;;;;;;84.40;38.95;;;;;;;;;;5092315;28;20436;-65
2022/03/22 03:36:32;;;;;;;80.40;35.03;;;;;;;;;;5070700;28;20596;-66
2022/03/22 03:39:14;;;;;;;65.93;31.30;;;;;;;;;;5071901;28;20795;-65
2022/03/22 03:41:59;;;;;;;74.83;32.73;;;;;;;;;;5058925;28;20547;-65
2022/03/22 03:47:15;;;;;;;72.37;31.53;;;;;;;;;;5073155;28;21021;-65
2022/03/22 03:49:46;;;;;;;73.43;31.93;;;;;;;;;;5056613;28;20795;-66
2022/03/22 03:52:20;;;;;;;80.83;32.50;;;;;;;;;;5072246;28;20546;-65
2022/03/22 03:54:47;;;;;;;79.00;33.80;;;;;;;;;;5071364;28;20911;-65
2022/03/22 03:57:14;;;;;;;80.07;33.20;;;;;;;;;;5071488;28;20424;-66
2022/03/22 03:59:40;;;;;;;73.73;32.23;;;;;;;;;;5071399;28;20432;-65
2022/03/22 04:02:08;;;;;;;69.80;32.23;;;;;;;;;;5066491;28;20428;-65
2022/03/22 04:04:37;;;;;;;76.77;33.67;;;;;;;;;;5079295;28;20837;-65
2022/03/22 04:07:04;;;;;;;74.13;31.67;;;;;;;;;;5072255;28;20463;-65
2022/03/22 04:09:32;;;;;;;66.27;31.87;;;;;;;;;;5091727;28;20435;-65
2022/03/22 04:11:59;;;;;;;72.93;30.77;;;;;;;;;;5091107;28;20441;-65
2022/03/22 04:14:27;;;;;;;68.93;30.17;;;;;;;;;;5091296;28;20506;-65
2022/03/22 04:16:56;;;;;;;64.40;29.60;;;;;;;;;;5091396;28;20435;-65
2022/03/22 04:19:23;;;;;;;69.60;30.43;;;;;;;;;;5091133;28;20442;-65
2022/03/22 04:21:50;;;;;;;68.73;29.90;;;;;;;;;;5091231;28;20833;-65
2022/03/22 04:24:18;;;;;;;67.83;30.10;;;;;;;;;;5090605;28;20443;-66
2022/03/22 04:26:45;;;;;;;71.07;30.43;;;;;;;;;;5090736;28;20459;-65
2022/03/22 04:34:43;;;;;;;67.30;27.80;;;;;;;;;;5076191;28;21170;-66
2022/03/22 04:37:13;;;;;;;58.83;27.63;;;;;;;;;;5090984;28;20523;-65
2022/03/22 04:39:43;;;;;;;62.17;28.07;;;;;;;;;;5070223;28;20471;-65
2022/03/22 04:42:10;;;;;;;63.27;27.70;;;;;;;;;;5059490;28;20454;-65
2022/03/22 04:44:37;;;;;;;63.40;29.00;;;;;;;;;;5069606;28;20990;-65
2022/03/22 04:47:04;;;;;;;59.83;27.83;;;;;;;;;;5068846;28;20558;-65
2022/03/22 04:49:32;;;;;;;65.47;28.23;;;;;;;;;;5070893;28;20479;-65
2022/03/22 04:57:30;;;;;;;58.77;26.80;;;;;;;;;;5067260;28;21097;-67
2022/03/22 05:00:04;;;;;;;58.87;26.57;;;;;;;;;;5077037;28;20435;-66
2022/03/22 05:02:40;;;;;;;68.97;29.47;;;;;;;;;;5068136;28;20460;-67
2022/03/22 05:05:07;;;;;;;66.03;28.63;;;;;;;;;;5077421;28;20985;-67
2022/03/22 05:07:38;;;;;;;63.67;27.40;;;;;;;;;;5075399;28;20472;-67
2022/03/22 05:10:08;;;;;;;62.73;26.30;;;;;;;;;;5072695;28;20931;-66
2022/03/22 05:13:02;;;;;;;62.57;26.53;;;;;;;;;;5057632;28;20465;-66
2022/03/22 05:16:05;;;;;;;63.30;27.23;;;;;;;;;;5077443;28;20986;-66
2022/03/22 05:18:34;;;;;;;64.17;27.87;;;;;;;;;;5072519;28;20459;-65
2022/03/22 05:21:04;;;;;;;62.27;28.33;;;;;;;;;;5078053;28;20458;-66
2022/03/22 05:23:31;;;;;;;59.60;27.63;;;;;;;;;;5074136;28;20503;-65
2022/03/22 05:25:58;;;;;;;68.57;28.30;;;;;;;;;;5081182;28;20428;-63
2022/03/22 05:28:25;;;;;;;61.70;29.33;;;;;;;;;;5061797;28;20928;-65
2022/03/22 05:30:51;;;;;;;62.67;30.43;;;;;;;;;;5075222;28;20568;-65
2022/03/22 05:33:18;;;;;;;61.03;28.57;;;;;;;;;;5079461;28;20435;-66
2022/03/22 05:35:45;;;;;;;61.67;29.30;;;;;;;;;;5077313;28;20470;-66
2022/03/22 05:38:12;;;;;;;76.10;31.87;;;;;;;;;;5070477;28;20506;-66
2022/03/22 05:40:39;;;;;;;71.93;31.30;;;;;;;;;;5076938;28;20443;-67
2022/03/22 05:43:06;;;;;;;60.13;30.10;;;;;;;;;;5059021;28;20537;-65
2022/03/22 05:45:33;;;;;;;66.17;31.20;;;;;;;;;;5058290;28;20449;-67
2022/03/22 05:48:01;;;;;;;79.43;30.20;;;;;;;;;;5053817;28;20508;-65
2022/03/22 05:50:27;;;;;;;70.27;33.97;;;;;;;;;;5077050;28;20847;-65
2022/03/22 05:52:54;;;;;;;79.27;34.23;;;;;;;;;;5085926;28;20475;-65
2022/03/22 05:55:21;;;;;;;71.03;33.17;;;;;;;;;;5069924;28;20442;-65
2022/03/22 05:57:47;;;;;;;70.97;32.80;;;;;;;;;;5069931;28;20445;-64
2022/03/22 06:00:14;;;;;;;77.07;34.67;;;;;;;;;;5076095;28;20436;-64
2022/03/22 06:02:41;;;;;;;77.00;34.73;;;;;;;;;;5053550;28;20448;-64
2022/03/22 06:05:09;;;;;;;74.23;35.37;;;;;;;;;;5071251;28;20428;-64
2022/03/22 06:07:36;;;;;;;71.60;35.03;;;;;;;;;;5086676;28;20506;-64
2022/03/22 06:10:03;;;;;;;76.13;36.50;;;;;;;;;;5088085;28;20481;-64
2022/03/22 06:12:40;;;;;;;69.33;33.13;;;;;;;;;;5079393;28;20529;-64
2022/03/22 06:15:14;;;;;;;74.53;35.07;;;;;;;;;;5071569;28;20914;-64
2022/03/22 06:17:49;;;;;;;65.37;35.40;;;;;;;;;;5085798;28;20552;-64
2022/03/22 06:20:17;;;;;;;73.27;35.20;;;;;;;;;;5097050;28;20422;-64
2022/03/22 06:22:45;;;;;;;70.20;34.63;;;;;;;;;;5077880;28;20185;-64
2022/03/22 06:25:12;;;;;;;68.67;34.93;;;;;;;;;;5089027;28;20211;-64
2022/03/22 06:27:39;;;;;;;74.67;35.67;;;;;;;;;;5088326;28;20477;-64
2022/03/22 06:30:06;;;;;;;66.33;36.37;;;;;;;;;;5073292;28;20459;-69
2022/03/22 06:32:42;;;;;;;71.17;37.10;;;;;;;;;;5073122;28;20455;-68
2022/03/22 06:35:13;;;;;;;71.37;37.53;;;;;;;;;;5076859;28;20228;-66
2022/03/22 06:37:40;;;;;;;78.77;38.13;;;;;;;;;;5067377;28;20186;-66
2022/03/22 06:40:07;;;;;;;74.70;38.47;;;;;;;;;;5052894;28;20447;-67
2022/03/22 06:42:34;;;;;;;81.60;39.43;;;;;;;;;;5068757;28;20436;-67
2022/03/22 06:45:03;;;;;;;76.83;39.47;;;;;;;;;;5048519;28;20665;-67
2022/03/22 06:47:30;;;;;;;83.43;41.30;;;;;;;;;;5047440;28;20171;-67
2022/03/22 06:49:56;;;;;;;91.70;42.33;;;;;;;;;;5047945;28;20202;-67
2022/03/22 06:52:23;;;;;;;91.63;42.87;;;;;;;;;;5046871;28;20186;-66
2022/03/22 06:54:50;;;;;;;89.03;42.67;;;;;;;;;;5047533;28;20193;-65
2022/03/22 06:57:17;;;;;;;88.53;42.87;;;;;;;;;;5048577;28;20193;-65
2022/03/22 06:59:43;;;;;;;95.90;44.33;;;;;;;;;;5048224;28;20198;-65
2022/03/22 07:02:10;;;;;;;87.03;44.73;;;;;;;;;;5048305;28;20253;-66
2022/03/22 07:04:37;;;;;;;84.30;43.43;;;;;;;;;;5047583;28;20198;-66
2022/03/22 07:07:04;;;;;;;83.30;42.53;;;;;;;;;;5050654;28;20691;-66
2022/03/22 07:09:31;;;;;;;84.70;45.33;;;;;;;;;;5068410;28;20224;-66
2022/03/22 07:11:58;;;;;;;90.07;44.80;;;;;;;;;;5067353;28;20185;-67
2022/03/22 07:14:26;;;;;;;84.90;42.60;;;;;;;;;;5053992;28;20253;-67
2022/03/22 07:16:53;;;;;;;81.27;43.40;;;;;;;;;;5051444;28;20171;-66
2022/03/22 07:19:21;;;;;;;74.90;43.83;;;;;;;;;;5052216;28;20240;-66
2022/03/22 07:21:47;;;;;;;81.00;44.23;;;;;;;;;;5052096;28;20197;-66
2022/03/22 07:24:15;;;;;;;79.03;42.13;;;;;;;;;;5050817;28;20194;-67
2022/03/22 07:26:42;;;;;;;77.03;41.67;;;;;;;;;;5051870;28;20190;-68
2022/03/22 07:29:09;;;;;;;75.07;42.73;;;;;;;;;;5045619;28;20216;-70
2022/03/22 07:31:38;;;;;;;77.57;43.23;;;;;;;;;;5055904;28;20210;-69
2022/03/22 07:34:06;;;;;;;74.43;42.53;;;;;;;;;;5063965;28;20197;-69
2022/03/22 07:36:35;;;;;;;76.00;40.40;;;;;;;;;;5076263;28;20240;-68
2022/03/22 07:39:16;;;;;;;68.97;39.13;;;;;;;;;;5064044;28;20202;-66
2022/03/22 07:42:01;;;;;;;63.27;36.83;;;;;;;;;;5065445;28;20259;-67
2022/03/22 07:44:30;;;;;;;57.57;32.63;;;;;;;;;;5057612;28;20298;-67
2022/03/22 07:46:57;;;;;;;53.63;30.90;;;;;;;;;;5064659;28;20201;-67
2022/03/22 07:54:55;;;;;;;64.70;32.03;;;;;;;;;;5065380;28;20194;-66
2022/03/22 07:57:22;;;;;;;58.40;31.20;;;;;;;;;;5066455;28;20182;-68
2022/03/22 07:59:49;;;;;;;61.93;32.20;;;;;;;;;;5066578;28;20711;-67
2022/03/22 08:02:16;;;;;;;55.00;31.43;;;;;;;;;;5065128;28;20872;-68
2022/03/22 08:04:43;;;;;;;60.93;32.43;;;;;;;;;;5066517;28;20206;-64
2022/03/22 08:07:10;;;;;;;50.77;30.27;;;;;;;;;;5064726;28;20193;-69
2022/03/22 08:09:37;;;;;;;53.93;30.17;;;;;;;;;;5065205;28;20222;-69
2022/03/22 08:12:04;;;;;;;54.87;30.50;;;;;;;;;;5063305;28;20243;-66
2022/03/22 08:14:30;;;;;;;64.77;30.73;;;;;;;;;;5064036;28;20363;-68
2022/03/22 08:16:59;;;;;;;62.97;30.67;;;;;;;;;;5064435;28;20865;-68
2022/03/22 08:19:29;;;;;;;60.80;28.53;;;;;;;;;;5065718;28;20309;-67
2022/03/22 08:21:56;;;;;;;45.13;26.17;;;;;;;;;;5072559;28;20225;-68
2022/03/22 08:24:23;;;;;;;63.20;26.90;;;;;;;;;;5064528;28;20201;-67
2022/03/22 08:26:50;;;;;;;46.37;25.10;;;;;;;;;;5063813;28;20213;-68
2022/03/22 08:29:17;;;;;;;35.90;21.90;;;;;;;;;;5063376;28;20241;-68
2022/03/22 08:31:44;;;;;;;35.90;21.73;;;;;;;;;;5075585;28;20271;-69
2022/03/22 08:34:11;;;;;;;35.33;21.97;;;;;;;;;;5066207;28;20252;-71
2022/03/22 08:36:49;;;;;;;35.30;21.00;;;;;;;;;;5065431;28;20925;-69
2022/03/22 08:39:16;;;;;;;33.30;20.70;;;;;;;;;;5064416;28;20201;-65
2022/03/22 08:41:43;;;;;;;31.73;20.13;;;;;;;;;;5065829;28;20256;-69
2022/03/22 08:44:11;;;;;;;32.23;18.80;;;;;;;;;;5050025;28;20309;-67
2022/03/22 08:46:37;;;;;;;31.67;19.60;;;;;;;;;;5045034;28;20186;-68
2022/03/22 08:49:07;;;;;;;34.93;19.30;;;;;;;;;;5043273;28;20567;-69
2022/03/22 08:51:34;;;;;;;31.00;18.17;;;;;;;;;;5045395;28;20221;-72
2022/03/22 08:54:01;;;;;;;33.63;20.07;;;;;;;;;;5059773;28;21029;-72
2022/03/22 08:56:29;;;;;;;29.80;18.77;;;;;;;;;;5043981;28;20216;-73
2022/03/22 08:59:00;;;;;;;32.77;18.30;;;;;;;;;;5045014;28;20183;-68
2022/03/22 09:01:31;;;;;;;33.17;18.47;;;;;;;;;;5045008;28;20234;-67
2022/03/22 09:07:05;;;;;;;31.00;18.33;;;;;;;;;;5041949;28;20243;-70
2022/03/22 09:09:32;;;;;;;24.07;15.60;;;;;;;;;;5045707;28;20306;-67
2022/03/22 09:11:58;;;;;;;29.60;17.50;;;;;;;;;;5059143;28;20211;-68
2022/03/22 09:14:28;;;;;;;25.30;16.43;;;;;;;;;;5045604;28;20282;-68
2022/03/22 09:16:55;;;;;;;27.60;14.20;;;;;;;;;;5045506;28;20214;-72
2022/03/22 09:19:22;;;;;;;22.73;14.80;;;;;;;;;;5044431;28;20882;-71
2022/03/22 09:21:49;;;;;;;22.50;13.27;;;;;;;;;;5045590;28;20277;-71
2022/03/22 09:24:16;;;;;;;24.23;14.50;;;;;;;;;;5010083;28;20301;-71
2022/03/22 09:27:01;;;;;;;22.27;12.73;;;;;;;;;;5043729;28;20177;-70
2022/03/22 09:29:27;;;;;;;25.40;14.67;;;;;;;;;;5045099;28;20890;-67
2022/03/22 09:31:55;;;;;;;24.77;13.93;;;;;;;;;;5044477;28;20666;-67
2022/03/22 09:34:25;;;;;;;27.50;15.70;;;;;;;;;;5042982;28;21052;-68
2022/03/22 09:36:52;;;;;;;25.70;14.90;;;;;;;;;;5043197;28;20199;-67
2022/03/22 09:39:20;;;;;;;23.23;14.40;;;;;;;;;;5043834;28;20245;-69
2022/03/22 09:41:48;;;;;;;21.37;14.37;;;;;;;;;;5038387;28;20211;-70
2022/03/22 09:44:16;;;;;;;28.57;15.00;;;;;;;;;;5047277;28;20320;-67
2022/03/22 09:47:01;;;;;;;20.90;11.50;;;;;;;;;;5047489;28;20179;-67
2022/03/22 09:49:28;;;;;;;30.90;10.57;;;;;;;;;;5066586;28;20685;-72
2022/03/22 09:52:14;;;;;;;12.40;8.80;;;;;;;;;;5043242;28;20174;-68
2022/03/22 09:54:41;;;;;;;15.83;8.53;;;;;;;;;;5028853;28;21080;-66
2022/03/22 09:57:08;;;;;;;13.93;8.73;;;;;;;;;;5034805;28;20191;-66
2022/03/22 09:59:35;;;;;;;14.17;9.07;;;;;;;;;;5067539;28;20899;-66
2022/03/22 10:02:02;;;;;;;12.97;8.03;;;;;;;;;;5058075;28;20209;-66
2022/03/22 10:04:47;;;;;;;13.77;9.03;;;;;;;;;;5044565;28;20179;-69
2022/03/22 10:07:17;;;;;;;13.53;9.20;;;;;;;;;;5043997;28;20187;-69
2022/03/22 10:09:51;;;;;;;13.57;8.77;;;;;;;;;;5043919;28;20273;-67
2022/03/22 10:12:33;;;;;;;14.50;8.50;;;;;;;;;;5042701;28;20198;-69
2022/03/22 10:15:09;;;;;;;14.33;9.07;;;;;;;;;;5043370;28;20194;-70
2022/03/22 10:17:36;;;;;;;11.13;8.37;;;;;;;;;;5042889;28;20293;-70
2022/03/22 10:20:21;;;;;;;12.80;8.57;;;;;;;;;;5033903;28;20258;-69
2022/03/22 10:22:55;;;;;;;14.10;8.87;;;;;;;;;;5035682;28;20661;-68
2022/03/22 10:25:40;;;;;;;12.67;8.50;;;;;;;;;;5041390;28;20182;-64
2022/03/22 10:28:08;;;;;;;19.30;9.30;;;;;;;;;;5049434;28;20190;-68
2022/03/22 10:30:56;;;;;;;15.73;9.40;;;;;;;;;;5027307;28;20217;-71
2022/03/22 10:33:25;;;;;;;12.70;9.60;;;;;;;;;;5040644;28;20277;-68
2022/03/22 10:35:52;;;;;;;13.67;8.77;;;;;;;;;;5033323;28;20274;-70
2022/03/22 10:38:20;;;;;;;12.70;7.67;;;;;;;;;;5037497;28;20206;-69
2022/03/22 10:40:47;;;;;;;13.03;8.97;;;;;;;;;;5068156;28;20257;-69
2022/03/22 10:43:14;;;;;;;13.40;9.03;;;;;;;;;;5050003;28;20237;-69
2022/03/22 10:45:44;;;;;;;16.47;9.50;;;;;;;;;;5027808;28;20210;-69
2022/03/22 10:48:20;;;;;;;14.47;8.23;;;;;;;;;;5046272;28;20302;-69
2022/03/22 10:50:48;;;;;;;12.80;8.10;;;;;;;;;;5061559;28;20206;-69
2022/03/22 10:53:15;;;;;;;13.63;8.67;;;;;;;;;;5046964;28;20213;-69
2022/03/22 10:55:42;;;;;;;17.10;9.57;;;;;;;;;;5037897;28;20566;-69
2022/03/22 10:58:09;;;;;;;12.80;8.53;;;;;;;;;;5052111;28;20420;-70
2022/03/22 11:00:36;;;;;;;13.97;9.37;;;;;;;;;;5027687;28;20590;-70
2022/03/22 11:03:04;;;;;;;14.03;8.87;;;;;;;;;;5062019;28;20190;-69
2022/03/22 11:05:32;;;;;;;13.87;8.97;;;;;;;;;;5025792;28;20540;-70
2022/03/22 11:07:59;;;;;;;17.57;8.70;;;;;;;;;;5027361;28;20557;-69
2022/03/22 11:10:29;;;;;;;12.63;8.13;;;;;;;;;;5044099;28;20221;-72
2022/03/22 11:12:59;;;;;;;13.00;8.57;;;;;;;;;;5044441;28;20195;-70
2022/03/22 11:15:27;;;;;;;14.03;8.67;;;;;;;;;;5040208;28;20245;-71
2022/03/22 11:17:54;;;;;;;14.77;9.10;;;;;;;;;;5040870;28;20312;-70
2022/03/22 11:20:24;;;;;;;14.43;9.47;;;;;;;;;;5042219;28;20915;-74
2022/03/22 11:22:54;;;;;;;16.43;9.80;;;;;;;;;;5043741;28;20925;-75
2022/03/22 11:25:28;;;;;;;19.87;10.90;;;;;;;;;;5043091;28;21120;-68
2022/03/22 11:27:57;;;;;;;17.03;11.13;;;;;;;;;;5043149;28;20202;-68
2022/03/22 11:30:41;;;;;;;16.40;10.47;;;;;;;;;;5042874;28;21086;-69
2022/03/22 11:35:56;;;;;;;17.83;11.40;;;;;;;;;;5041531;28;20195;-67
2022/03/22 11:38:35;;;;;;;15.83;9.67;;;;;;;;;;5041761;28;21021;-66
2022/03/22 11:43:48;;;;;;;19.40;10.63;;;;;;;;;;5045462;28;20214;-71
2022/03/22 11:46:15;;;;;;;16.50;10.83;;;;;;;;;;5040877;28;20209;-72
2022/03/22 11:48:42;;;;;;;17.97;11.40;;;;;;;;;;5040560;28;20598;-71
2022/03/22 11:51:09;;;;;;;15.67;9.63;;;;;;;;;;5042930;28;20276;-71
2022/03/22 11:53:45;;;;;;;16.37;10.33;;;;;;;;;;5058710;28;20244;-70
2022/03/22 11:56:12;;;;;;;17.30;10.43;;;;;;;;;;5041015;28;20190;-71
2022/03/22 11:58:49;;;;;;;15.53;10.13;;;;;;;;;;5042841;28;20191;-74
2022/03/22 12:01:35;;;;;;;13.53;10.13;;;;;;;;;;5045907;28;20216;-74
2022/03/22 12:04:12;;;;;;;14.27;9.50;;;;;;;;;;5026896;28;20202;-73
2022/03/22 12:06:42;;;;;;;16.17;10.47;;;;;;;;;;5060914;28;20198;-75
2022/03/22 12:09:27;;;;;;;15.63;10.40;;;;;;;;;;5039062;28;20202;-72
2022/03/22 12:11:55;;;;;;;17.73;10.30;;;;;;;;;;5045638;28;20641;-74
2022/03/22 12:14:28;;;;;;;14.13;8.27;;;;;;;;;;5045345;28;20791;-69
2022/03/22 12:17:01;;;;;;;13.23;8.53;;;;;;;;;;5046887;28;20229;-71
2022/03/22 12:19:35;;;;;;;14.23;9.07;;;;;;;;;;5044197;28;20202;-70
2022/03/22 12:22:02;;;;;;;12.53;8.33;;;;;;;;;;5046439;28;20270;-68
2022/03/22 12:24:33;;;;;;;13.93;8.23;;;;;;;;;;5046400;28;20190;-69
2022/03/22 12:27:06;;;;;;;12.40;8.20;;;;;;;;;;5046164;28;20198;-72
2022/03/22 12:29:38;;;;;;;17.70;9.67;;;;;;;;;;5045979;28;20214;-68
2022/03/22 12:32:07;;;;;;;14.30;8.87;;;;;;;;;;5044164;28;20194;-69
2022/03/22 12:34:35;;;;;;;14.60;8.77;;;;;;;;;;5046360;28;20198;-68
2022/03/22 12:37:02;;;;;;;12.83;8.30;;;;;;;;;;5043649;28;20203;-70
2022/03/22 12:39:36;;;;;;;13.63;9.33;;;;;;;;;;5044300;28;20773;-70
2022/03/22 12:42:03;;;;;;;15.10;8.70;;;;;;;;;;5044678;28;20689;-70
2022/03/22 12:44:30;;;;;;;14.93;9.70;;;;;;;;;;5039602;28;20234;-71
2022/03/22 12:46:57;;;;;;;14.90;8.17;;;;;;;;;;5044804;28;20187;-72
2022/03/22 12:49:27;;;;;;;15.03;8.27;;;;;;;;;;5060595;28;20520;-72
2022/03/22 12:51:55;;;;;;;15.87;9.40;;;;;;;;;;5060419;28;20924;-72
2022/03/22 12:54:23;;;;;;;13.27;8.50;;;;;;;;;;5043685;28;20190;-71
2022/03/22 12:56:49;;;;;;;15.67;9.47;;;;;;;;;;5045448;28;20208;-68
2022/03/22 12:59:23;;;;;;;13.77;8.70;;;;;;;;;;5044662;28;20197;-72
2022/03/22 13:01:56;;;;;;;15.70;9.73;;;;;;;;;;5042243;28;20203;-70
2022/03/22 13:04:29;;;;;;;13.07;8.80;;;;;;;;;;5058040;28;20193;-70
2022/03/22 13:07:01;;;;;;;13.10;8.40;;;;;;;;;;5043173;28;20210;-70
2022/03/22 13:12:14;;;;;;;17.07;8.80;;;;;;;;;;5041513;28;20819;-69
2022/03/22 13:15:01;;;;;;;15.47;8.97;;;;;;;;;;5043418;28;20175;-72
2022/03/22 13:17:48;;;;;;;14.67;8.93;;;;;;;;;;5053980;28;20175;-71
2022/03/22 13:20:24;;;;;;;13.33;8.23;;;;;;;;;;5044472;28;20182;-71
2022/03/22 13:22:51;;;;;;;13.13;8.87;;;;;;;;;;5059125;28;20191;-69
2022/03/22 13:25:21;;;;;;;15.67;9.77;;;;;;;;;;5044301;28;20696;-69
2022/03/22 13:27:57;;;;;;;15.40;8.73;;;;;;;;;;5042567;28;20601;-69
2022/03/22 13:30:25;;;;;;;12.60;8.70;;;;;;;;;;5046391;28;20280;-75
2022/03/22 13:32:52;;;;;;;16.17;9.07;;;;;;;;;;5059267;28;20217;-72
2022/03/22 13:35:21;;;;;;;13.97;8.57;;;;;;;;;;5059496;28;20273;-73
2022/03/22 13:37:49;;;;;;;12.90;8.63;;;;;;;;;;5042377;28;20217;-73
2022/03/22 13:40:17;;;;;;;16.10;9.47;;;;;;;;;;5058897;28;20644;-72
2022/03/22 13:42:57;;;;;;;16.13;9.47;;;;;;;;;;5044759;28;20241;-71
2022/03/22 13:45:24;;;;;;;15.33;8.57;;;;;;;;;;5070654;28;20225;-72
2022/03/22 13:47:55;;;;;;;12.67;8.40;;;;;;;;;;5078224;28;20217;-74
2022/03/22 13:50:24;;;;;;;13.47;8.30;;;;;;;;;;5052981;28;20225;-69
2022/03/22 13:53:05;;;;;;;12.53;8.90;;;;;;;;;;5077962;28;20965;-70
2022/03/22 13:55:33;;;;;;;14.90;8.17;;;;;;;;;;5058035;28;20193;-71
2022/03/22 13:58:00;;;;;;;15.00;8.77;;;;;;;;;;5078730;28;20250;-69
2022/03/22 14:00:48;;;;;;;10.47;7.93;;;;;;;;;;5079984;28;20193;-73
2022/03/22 14:03:15;;;;;;;14.17;8.07;;;;;;;;;;5068366;28;20265;-72
2022/03/22 14:05:42;;;;;;;11.53;7.50;;;;;;;;;;5057848;28;20211;-72
2022/03/22 14:08:12;;;;;;;11.80;7.80;;;;;;;;;;5073452;28;20205;-69
2022/03/22 14:10:45;;;;;;;12.90;7.83;;;;;;;;;;5080310;28;20783;-70
2022/03/22 14:13:15;;;;;;;12.00;7.97;;;;;;;;;;5043564;28;21016;-70
2022/03/22 14:15:42;;;;;;;13.00;7.83;;;;;;;;;;5068719;28;20194;-69
2022/03/22 14:18:09;;;;;;;13.57;8.57;;;;;;;;;;5073627;28;20188;-71
2022/03/22 14:20:36;;;;;;;14.07;8.00;;;;;;;;;;5076274;28;20205;-71
2022/03/22 14:23:04;;;;;;;15.97;8.70;;;;;;;;;;5073292;28;20197;-70
2022/03/22 14:25:31;;;;;;;14.83;8.70;;;;;;;;;;5076016;28;20189;-72
2022/03/22 14:27:58;;;;;;;13.53;8.33;;;;;;;;;;5072718;28;20189;-73
2022/03/22 14:30:27;;;;;;;14.60;8.53;;;;;;;;;;5071603;28;20727;-76
2022/03/22 14:33:04;;;;;;;14.33;9.27;;;;;;;;;;5075316;28;20268;-76
2022/03/22 14:35:46;;;;;;;14.50;8.97;;;;;;;;;;5072694;28;20749;-74
2022/03/22 14:38:14;;;;;;;15.03;9.30;;;;;;;;;;5079905;28;20586;-72
2022/03/22 14:40:41;;;;;;;15.80;9.33;;;;;;;;;;5084648;28;20193;-68
2022/03/22 14:43:11;;;;;;;14.07;8.40;;;;;;;;;;5088743;28;20282;-69
2022/03/22 14:45:38;;;;;;;14.10;8.70;;;;;;;;;;5088005;28;20569;-68
2022/03/22 14:48:05;;;;;;;15.77;8.87;;;;;;;;;;5079053;28;20186;-69
2022/03/22 14:50:32;;;;;;;15.83;9.00;;;;;;;;;;5050857;28;20696;-69
2022/03/22 14:55:44;;;;;;;14.57;9.13;;;;;;;;;;5086940;28;20193;-69
2022/03/22 15:00:56;;;;;;;18.03;8.97;;;;;;;;;;5088907;28;20227;-68
2022/03/22 15:03:26;;;;;;;14.47;8.80;;;;;;;;;;5088135;28;20590;-69
2022/03/22 15:05:59;;;;;;;11.60;7.87;;;;;;;;;;5071701;28;20272;-68
2022/03/22 15:08:26;;;;;;;15.17;8.43;;;;;;;;;;5054328;28;20232;-68
2022/03/22 15:10:52;;;;;;;17.47;8.80;;;;;;;;;;5070324;28;20215;-69
2022/03/22 15:13:20;;;;;;;17.17;9.37;;;;;;;;;;5070772;28;20189;-69
2022/03/22 15:15:48;;;;;;;15.07;9.40;;;;;;;;;;5088964;28;20204;-69
2022/03/22 15:18:18;;;;;;;15.03;8.40;;;;;;;;;;5070486;28;20189;-69
2022/03/22 15:20:45;;;;;;;13.53;8.63;;;;;;;;;;5053925;28;20790;-69
2022/03/22 15:23:14;;;;;;;15.27;8.97;;;;;;;;;;5066957;28;20189;-69
2022/03/22 15:25:48;;;;;;;14.30;9.27;;;;;;;;;;5056252;28;20313;-69
2022/03/22 15:28:16;;;;;;;14.47;8.63;;;;;;;;;;5071771;28;20759;-69
2022/03/22 15:30:43;;;;;;;15.70;9.23;;;;;;;;;;5072699;28;20639;-68
2022/03/22 15:33:13;;;;;;;16.83;9.80;;;;;;;;;;5070603;28;20193;-69
2022/03/22 15:35:40;;;;;;;24.67;15.43;;;;;;;;;;5073400;28;20188;-68
2022/03/22 15:38:07;;;;;;;15.70;9.57;;;;;;;;;;5057783;28;20279;-68
2022/03/22 15:40:34;;;;;;;20.60;8.90;;;;;;;;;;5092803;28;20189;-69
2022/03/22 15:43:18;;;;;;;20.87;9.43;;;;;;;;;;5074106;28;20222;-69
2022/03/22 15:45:45;;;;;;;18.10;9.40;;;;;;;;;;5062175;28;20259;-69
2022/03/22 15:48:12;;;;;;;16.63;8.73;;;;;;;;;;5071844;28;20696;-69
2022/03/22 15:50:39;;;;;;;15.83;9.00;;;;;;;;;;5076480;28;20206;-69
2022/03/22 15:53:07;;;;;;;18.07;8.40;;;;;;;;;;5072538;28;20199;-68
2022/03/22 15:55:34;;;;;;;15.40;9.23;;;;;;;;;;5074338;28;20194;-70
2022/03/22 15:58:01;;;;;;;15.17;8.80;;;;;;;;;;5076784;28;20309;-70
2022/03/22 16:00:29;;;;;;;12.60;8.83;;;;;;;;;;5072358;28;20921;-69
2022/03/22 16:02:56;;;;;;;17.33;9.23;;;;;;;;;;5075762;28;20190;-69
2022/03/22 16:05:23;;;;;;;17.40;9.40;;;;;;;;;;5060846;28;20185;-72
2022/03/22 16:07:49;;;;;;;15.00;9.00;;;;;;;;;;5075436;28;20193;-71
2022/03/22 16:10:17;;;;;;;15.23;9.47;;;;;;;;;;5072140;28;20748;-70
2022/03/22 16:12:44;;;;;;;16.77;10.17;;;;;;;;;;5077216;28;20213;-70
2022/03/22 16:15:12;;;;;;;15.77;10.20;;;;;;;;;;5053188;28;20609;-70
2022/03/22 16:17:43;;;;;;;20.33;10.27;;;;;;;;;;5074240;28;20199;-69